Terminal Aerodrome Forecast
Issued by NWS

Home | Current Version | Previous Version | Text Only | Print | Product List | Glossary On
Versions: 1 2 3 4 5 6 7 8 9 10 11 12 13 14 15 16 17 18 19
000
FTUS46 KSEW 231700 RRA
TAFCLM
TAF
KCLM 231747Z 2318/2418 27018G25KT P6SM VCSH SCT025 BKN050
     FM240300 24005KT P6SM BKN050
     FM241500 20003KT P6SM SCT025 SCT080=

USA.gov is the U.S. government's official web portal to all federal, state and local government web resources and services.